Aeroporto :
LOGIN :

Iscrizione | Disclaimer

   EN    FR    IT 

 










Sommario :    VFR   VFR Marginale   IFR   IFR Intensivo   IFR Molto Intensivo
Visibilità : 
Base nubi : 
>= 8 km
>= 3000ft
5 / 8 km
1000 / 3000 ft
1500m / 5 km
500 / 1000 ft
800 / 1500m
200 / 500 ft
< 800m
< 200 ft
Simboli :   Temporali  Nebbia  Neve Forte  Precipitazioni Forti  Vento > 20 kt
SIGMETs :   Varie  Temporali  Ghiacco  Turbolenza  Onda orograficha  Ceneri Vulcaniche







- Altitudine del aeroporto : 614 ft
- Codice IATA : CRL


EBCI - Charleroi

ULTIMO METAR :
  • 121550Z 23006KT 9999 FEW010 02/01 Q1012 NOSIG

METARs OBSOLETI :
  • 121520Z 23007KT 9999 FEW009 SCT012 02/01 Q1011 NOSIG
  • 121450Z 24007KT 9999 FEW009 BKN012 02/01 Q1011 NOSIG
  • 121420Z 25007KT 9999 FEW008 BKN010 02/01 Q1011 NOSIG
  • 121350Z 24010KT 9999 FEW007 BKN009 02/01 Q1010 TEMPO 1000 SHRASN BKN002
  • 121320Z 24011KT 220V280 9999 FEW006 BKN008 02/01 Q1010 TEMPO 1000 SHRASN BKN002
  • 121250Z 23011KT 9000 FEW006 BKN008 02/01 Q1010 TEMPO 1000 SHRASN BKN002

TAF TAF EBCI
Valido dal 12 a 12 ore il 13 a 18 ore UTC


121110Z 1212/1318 24008KT 9999 SCT004 SCT015
TEMPO 1212/1215 2500 -SHSNRA BKN004 SCT011TCU
PROB40
TEMPO 1212/1215 0800 SHSN BKN002 BKN010CB
TEMPO 1300/1318 20017G30KT
TEMPO 1305/1318 4000 RADZ SCT003 BKN005
Nessun NOTAM noto per questo aeroporto.



MetMap, La meteo Aeronautica in un colpo d'occhio ! - Copyright ORBIFLY Dicembre 2007 - Disclaimer

ORBIFLY MET'MAP TEAM :

Programmazione e sviluppo : Alexandra Zaïnal
Concezione e sviluppo : Baudouin d'Aumeries
Co-Programmazione e sviluppo : Marc-Olivier Méhu
Supporto tecnico e logistico : Manuel Goepfert
Aiuto per la traduzione : Arnaldo La Scala

Contatto : metmap@orbifly.com




FONTI E CREDITI :

   NOAA